| time (UTC) | temp F | wind direction | speed MPH | gust MPH | rain 1hr in | rain 24hr in | rain mn in | humidity % | barometer mb |
| 20260509150111 | 72 | 307 | 0.0 | 1.0 | 0.00 | 0.00 | 0.00 | 89 | 1006.3 |
| 20260509145111 | 72 | 308 | 1.0 | 2.0 | 0.00 | 0.00 | 0.00 | 89 | 1006.4 |
| 20260509144111 | 72 | 308 | 1.0 | 1.0 | 0.00 | 0.00 | 0.00 | 89 | 1006.4 |
| 20260509143111 | 72 | 307 | 0.0 | 3.0 | 0.00 | 0.00 | 0.00 | 89 | 1006.3 |
| 20260509142111 | 72 | 307 | 1.0 | 3.0 | 0.00 | 0.00 | 0.00 | 88 | 1006.1 |
| 20260509141111 | 72 | 307 | 0.0 | 2.0 | 0.00 | 0.00 | 0.00 | 89 | 1006.1 |
| 20260509140111 | 72 | 307 | 0.0 | 3.0 | 0.00 | 0.00 | 0.00 | 91 | 1006.0 |
| 20260509135111 | 71 | 308 | 1.0 | 2.0 | 0.00 | 0.00 | 0.00 | 91 | 1006.0 |
| 20260509134111 | 71 | 308 | 0.0 | 1.0 | 0.00 | 0.00 | 0.00 | 92 | 1005.9 |
| 20260509133111 | 71 | 307 | 0.0 | 1.0 | 0.00 | 0.00 | 0.00 | 93 | 1005.8 |
| 20260509132111 | 70 | 307 | 0.0 | 1.0 | 0.00 | 0.00 | 0.00 | 93 | 1005.7 |
| 20260509131111 | 71 | 307 | 2.0 | 2.0 | 0.00 | 0.00 | 0.00 | 93 | 1005.8 |
| 20260509130111 | 71 | 307 | 0.0 | 1.0 | 0.00 | 0.00 | 0.00 | 93 | 1005.8 |
| 20260509125111 | 71 | 308 | 0.0 | 1.0 | 0.00 | 0.00 | 0.00 | 94 | 1005.6 |
| 20260509124111 | 70 | 307 | 0.0 | 1.0 | 0.00 | 0.00 | 0.00 | 95 | 1005.6 |
| 20260509123111 | 69 | 307 | 0.0 | 0.0 | 0.00 | 0.00 | 0.00 | 96 | 1005.7 |
| 20260509122111 | 68 | 308 | 0.0 | 0.0 | 0.00 | 0.00 | 0.00 | 96 | 1005.6 |
| 20260509121111 | 68 | 308 | 0.0 | 0.0 | 0.00 | 0.00 | 0.00 | 93 | 1005.6 |
| 20260509120111 | 68 | 308 | 0.0 | 0.0 | 0.00 | 0.00 | 0.00 | 93 | 1005.5 |
| 20260509115111 | 68 | 308 | 0.0 | 0.0 | 0.00 | 0.00 | 0.00 | 93 | 1005.4 |
| 20260509114111 | 68 | 308 | 0.0 | 0.0 | 0.00 | 0.00 | 0.00 | 93 | 1005.1 |
| 20260509113111 | 68 | 308 | 0.0 | 0.0 | 0.00 | 0.00 | 0.00 | 93 | 1005.0 |
| 20260509112111 | 68 | 308 | 0.0 | 0.0 | 0.00 | 0.00 | 0.00 | 93 | 1004.7 |
| 20260509111111 | 68 | 308 | 0.0 | 0.0 | 0.00 | 0.00 | 0.00 | 93 | 1004.6 |
| 20260509110111 | 68 | 308 | 0.0 | 0.0 | 0.00 | 0.00 | 0.00 | 93 | 1004.4 |
| 20260509105111 | 68 | 308 | 0.0 | 0.0 | 0.00 | 0.00 | 0.00 | 93 | 1004.3 |
| 20260509104111 | 68 | 308 | 0.0 | 0.0 | 0.00 | 0.00 | 0.00 | 93 | 1004.3 |
| 20260509103111 | 68 | 308 | 0.0 | 0.0 | 0.00 | 0.00 | 0.00 | 93 | 1004.2 |
| 20260509102111 | 68 | 308 | 0.0 | 0.0 | 0.00 | 0.00 | 0.00 | 93 | 1004.2 |
| 20260509101111 | 68 | 308 | 0.0 | 0.0 | 0.00 | 0.00 | 0.00 | 93 | 1004.1 |
| 20260509100111 | 68 | 308 | 0.0 | 0.0 | 0.00 | 0.00 | 0.00 | 93 | 1004.2 |
| 20260509095111 | 68 | 308 | 0.0 | 0.0 | 0.00 | 0.00 | 0.00 | 93 | 1004.0 |
| 20260509094111 | 68 | 308 | 0.0 | 0.0 | 0.00 | 0.00 | 0.00 | 93 | 1004.0 |
| 20260509093111 | 68 | 308 | 0.0 | 0.0 | 0.00 | 0.00 | 0.00 | 93 | 1004.2 |
| 20260509092111 | 69 | 307 | 0.0 | 0.0 | 0.00 | 0.00 | 0.00 | 94 | 1004.1 |
| 20260509091111 | 69 | 308 | 0.0 | 2.0 | 0.00 | 0.00 | 0.00 | 94 | 1003.9 |
| 20260509090111 | 70 | 307 | 2.0 | 5.0 | 0.00 | 0.00 | 0.00 | 93 | 1002.9 |
| 20260509085111 | 70 | 307 | 2.0 | 6.0 | 0.00 | 0.00 | 0.00 | 93 | 1002.7 |
| 20260509084111 | 70 | 307 | 2.0 | 6.0 | 0.00 | 0.00 | 0.00 | 93 | 1002.9 |
| 20260509083111 | 70 | 308 | 1.0 | 7.0 | 0.00 | 0.00 | 0.00 | 93 | 1003.0 |
| 20260509082111 | 70 | 308 | 2.0 | 5.0 | 0.00 | 0.00 | 0.00 | 93 | 1003.4 |
| 20260509081111 | 70 | 307 | 3.0 | 4.0 | 0.00 | 0.00 | 0.00 | 93 | 1003.6 |
| 20260509080111 | 70 | 308 | 1.0 | 2.0 | 0.00 | 0.00 | 0.00 | 92 | 1004.3 |
| 20260509075111 | 70 | 307 | 0.0 | 3.0 | 0.00 | 0.00 | 0.00 | 92 | 1004.6 |
| 20260509074111 | 70 | 308 | 1.0 | 2.0 | 0.00 | 0.00 | 0.00 | 92 | 1005.0 |
| 20260509073110 | 70 | 307 | 0.0 | 1.0 | 0.00 | 0.00 | 0.00 | 92 | 1005.3 |
| 20260509072110 | 70 | 307 | 0.0 | 1.0 | 0.00 | 0.00 | 0.00 | 91 | 1005.5 |
| 20260509071110 | 70 | 307 | 0.0 | 2.0 | 0.00 | 0.00 | 0.00 | 91 | 1005.6 |
| 20260509070110 | 70 | 308 | 0.0 | 1.0 | 0.00 | 0.00 | 0.00 | 92 | 1005.7 |
| 20260509065110 | 70 | 308 | 0.0 | 1.0 | 0.00 | 0.00 | 0.00 | 91 | 1005.8 |
| 20260509064110 | 70 | 307 | 0.0 | 1.0 | 0.00 | 0.00 | 0.00 | 91 | 1005.8 |
| 20260509063110 | 70 | 308 | 0.0 | 1.0 | 0.00 | 0.00 | 0.00 | 90 | 1005.3 |
| 20260509062110 | 70 | 308 | 0.0 | 1.0 | 0.00 | 0.00 | 0.00 | 90 | 1005.3 |
| 20260509061110 | 70 | 308 | 0.0 | 1.0 | 0.00 | 0.00 | 0.00 | 90 | 1005.5 |
| 20260509060110 | 70 | 308 | 0.0 | 2.0 | 0.00 | 0.00 | 0.00 | 89 | 1005.3 |
| 20260509055110 | 70 | 308 | 0.0 | 1.0 | 0.00 | 0.00 | 0.00 | 88 | 1005.4 |
| 20260509054110 | 70 | 308 | 0.0 | 1.0 | 0.00 | 0.00 | 0.00 | 88 | 1006.1 |
| 20260509053110 | 71 | 307 | 0.0 | 0.0 | 0.00 | 0.00 | 0.00 | 87 | 1006.3 |
| 20260509052110 | 70 | 308 | 0.0 | 1.0 | 0.00 | 0.00 | 0.00 | 87 | 1006.1 |
| 20260509051110 | 70 | 308 | 0.0 | 1.0 | 0.00 | 0.00 | 0.00 | 88 | 1006.8 |
| 20260509050110 | 70 | 308 | 0.0 | 1.0 | 0.00 | 0.00 | 0.00 | 87 | 1007.1 |
| 20260509045110 | 71 | 307 | 0.0 | 1.0 | 0.00 | 0.00 | 0.00 | 86 | 1005.8 |
| 20260509044110 | 71 | 307 | 0.0 | 1.0 | 0.00 | 0.00 | 0.00 | 86 | 1005.3 |
| 20260509043110 | 71 | 308 | 0.0 | 2.0 | 0.00 | 0.00 | 0.00 | 85 | 1005.4 |
| 20260509042110 | 71 | 308 | 0.0 | 5.0 | 0.00 | 0.00 | 0.00 | 85 | 1005.1 |
| 20260509041110 | 71 | 308 | 3.0 | 3.0 | 0.00 | 0.00 | 0.00 | 85 | 1005.4 |
| 20260509040110 | 71 | 307 | 0.0 | 4.0 | 0.00 | 0.00 | 0.00 | 85 | 1005.1 |
| 20260509035110 | 72 | 307 | 2.0 | 3.0 | 0.00 | 0.00 | 0.00 | 85 | 1005.4 |
| 20260509034110 | 72 | 308 | 1.0 | 3.0 | 0.00 | 0.00 | 0.00 | 84 | 1005.8 |
| 20260509033110 | 72 | 307 | 0.0 | 0.0 | 0.00 | 0.00 | 0.00 | 84 | 1006.5 |
| 20260509032110 | 72 | 307 | 0.0 | 1.0 | 0.00 | 0.00 | 0.00 | 84 | 1005.9 |
| 20260509031110 | 72 | 307 | 0.0 | 2.0 | 0.00 | 0.00 | 0.00 | 84 | 1005.6 |
| 20260509030110 | 72 | 307 | 1.0 | 2.0 | 0.00 | 0.00 | 0.00 | 84 | 1005.7 |
| 20260509025110 | 72 | 308 | 0.0 | 2.0 | 0.00 | 0.00 | 0.00 | 83 | 1005.6 |
| 20260509024110 | 72 | 307 | 1.0 | 2.0 | 0.00 | 0.00 | 0.00 | 83 | 1005.3 |
| 20260509023110 | 72 | 308 | 0.0 | 2.0 | 0.00 | 0.00 | 0.00 | 83 | 1004.9 |
| 20260509022110 | 72 | 307 | 0.0 | 4.0 | 0.00 | 0.00 | 0.00 | 83 | 1004.3 |
| 20260509021110 | 72 | 308 | 2.0 | 4.0 | 0.00 | 0.00 | 0.00 | 83 | 1004.3 |
| 20260509020110 | 72 | 307 | 2.0 | 3.0 | 0.00 | 0.00 | 0.00 | 82 | 1004.5 |
| 20260509015110 | 72 | 308 | 1.0 | 4.0 | 0.00 | 0.00 | 0.00 | 82 | 1004.2 |
| 20260509014110 | 72 | 307 | 2.0 | 3.0 | 0.00 | 0.00 | 0.00 | 81 | 1004.1 |
| 20260509013110 | 73 | 308 | 0.0 | 1.0 | 0.00 | 0.00 | 0.00 | 81 | 1004.1 |
| 20260509012110 | 73 | 307 | 0.0 | 2.0 | 0.00 | 0.00 | 0.00 | 80 | 1004.2 |
| 20260509011110 | 73 | 307 | 0.0 | 1.0 | 0.00 | 0.00 | 0.00 | 79 | 1004.2 |
| 20260509010110 | 73 | 308 | 0.0 | 2.0 | 0.00 | 0.00 | 0.00 | 79 | 1004.2 |
| 20260509005110 | 73 | 308 | 1.0 | 2.0 | 0.00 | 0.00 | 0.00 | 78 | 1004.1 |
| 20260509004110 | 73 | 307 | 1.0 | 4.0 | 0.00 | 0.00 | 0.00 | 78 | 1003.7 |
| 20260509003110 | 74 | 308 | 2.0 | 6.0 | 0.00 | 0.00 | 0.00 | 78 | 1003.6 |
| 20260509002110 | 74 | 307 | 4.0 | 6.0 | 0.00 | 0.00 | 0.00 | 77 | 1003.6 |
| 20260509001110 | 74 | 307 | 1.0 | 5.0 | 0.00 | 0.00 | 0.00 | 76 | 1003.6 |
| 20260509000110 | 75 | 308 | 3.0 | 5.0 | 0.00 | 0.00 | 0.00 | 76 | 1003.7 |
| 20260508235110 | 75 | 308 | 1.0 | 4.0 | 0.00 | 0.00 | 0.00 | 74 | 1003.8 |
| 20260508234110 | 75 | 308 | 1.0 | 3.0 | 0.00 | 0.00 | 0.00 | 74 | 1004.0 |
| 20260508233110 | 76 | 307 | 0.0 | 3.0 | 0.00 | 0.00 | 0.00 | 74 | 1004.1 |
| 20260508232110 | 76 | 308 | 3.0 | 5.0 | 0.00 | 0.00 | 0.00 | 73 | 1004.2 |
| 20260508231109 | 76 | 307 | 2.0 | 4.0 | 0.00 | 0.00 | 0.00 | 73 | 1004.1 |
| 20260508230109 | 77 | 307 | 0.0 | 3.0 | 0.00 | 0.00 | 0.00 | 72 | 1004.2 |
| 20260508225109 | 77 | 307 | 0.0 | 4.0 | 0.00 | 0.00 | 0.00 | 71 | 1004.3 |
| 20260508224109 | 77 | 308 | 0.0 | 4.0 | 0.00 | 0.00 | 0.00 | 72 | 1004.2 |
| 20260508223109 | 77 | 308 | 0.0 | 4.0 | 0.00 | 0.00 | 0.00 | 72 | 1004.3 |
| 20260508222109 | 77 | 308 | 1.0 | 6.0 | 0.00 | 0.00 | 0.00 | 72 | 1004.2 |
| 20260508221109 | 77 | 307 | 0.0 | 5.0 | 0.00 | 0.00 | 0.00 | 72 | 1004.1 |
| 20260508220109 | 77 | 307 | 2.0 | 6.0 | 0.00 | 0.00 | 0.00 | 71 | 1004.0 |
| 20260508215109 | 77 | 307 | 0.0 | 5.0 | 0.00 | 0.00 | 0.00 | 72 | 1004.0 |
| 20260508214109 | 77 | 308 | 2.0 | 7.0 | 0.00 | 0.00 | 0.00 | 71 | 1004.1 |
| 20260508213109 | 77 | 308 | 2.0 | 6.0 | 0.00 | 0.00 | 0.00 | 71 | 1004.0 |
| 20260508212109 | 77 | 308 | 5.0 | 7.0 | 0.00 | 0.00 | 0.00 | 70 | 1004.3 |
| 20260508211109 | 77 | 307 | 1.0 | 5.0 | 0.00 | 0.00 | 0.00 | 68 | 1004.5 |
| 20260508210109 | 77 | 307 | 4.0 | 5.0 | 0.00 | 0.00 | 0.00 | 70 | 1005.0 |
| 20260508205109 | 76 | 307 | 1.0 | 5.0 | 0.00 | 0.00 | 0.00 | 70 | 1005.3 |
| 20260508204109 | 77 | 307 | 4.0 | 4.0 | 0.00 | 0.00 | 0.00 | 69 | 1005.7 |
| 20260508203109 | 78 | 308 | 0.0 | 4.0 | 0.00 | 0.00 | 0.00 | 68 | 1006.0 |
| 20260508202109 | 78 | 307 | 0.0 | 4.0 | 0.00 | 0.00 | 0.00 | 68 | 1006.1 |
| 20260508201109 | 79 | 308 | 0.0 | 5.0 | 0.00 | 0.00 | 0.00 | 66 | 1006.1 |
| 20260508200109 | 79 | 308 | 1.0 | 4.0 | 0.00 | 0.00 | 0.00 | 66 | 1006.1 |
| 20260508195109 | 79 | 308 | 0.0 | 3.0 | 0.00 | 0.00 | 0.00 | 65 | 1006.1 |
| 20260508194109 | 80 | 308 | 1.0 | 2.0 | 0.00 | 0.00 | 0.00 | 65 | 1006.2 |
| 20260508193109 | 81 | 307 | 2.0 | 5.0 | 0.00 | 0.00 | 0.00 | 62 | 1006.3 |
| 20260508192109 | 81 | 300 | 4.0 | 4.0 | 0.00 | 0.00 | 0.00 | 63 | 1006.4 |
| 20260508191109 | 80 | 295 | 1.0 | 4.0 | 0.00 | 0.00 | 0.00 | 63 | 1006.5 |
| 20260508190109 | 80 | 295 | 0.0 | 6.0 | 0.00 | 0.00 | 0.00 | 62 | 1006.5 |
| 20260508185109 | 80 | 295 | 2.0 | 5.0 | 0.00 | 0.00 | 0.00 | 62 | 1006.6 |
| 20260508184109 | 79 | 294 | 0.0 | 6.0 | 0.00 | 0.00 | 0.00 | 64 | 1006.6 |
| 20260508183109 | 78 | 295 | 3.0 | 7.0 | 0.00 | 0.00 | 0.00 | 62 | 1006.9 |
| 20260508182109 | 78 | 294 | 2.0 | 5.0 | 0.00 | 0.00 | 0.00 | 63 | 1007.1 |
| 20260508181109 | 77 | 294 | 1.0 | 2.0 | 0.00 | 0.00 | 0.00 | 66 | 1007.3 |
| 20260508180109 | 76 | 294 | 2.0 | 5.0 | 0.00 | 0.00 | 0.00 | 66 | 1007.6 |
| 20260508175109 | 76 | 293 | 3.0 | 6.0 | 0.00 | 0.00 | 0.00 | 65 | 1007.7 |
| 20260508174109 | 76 | 294 | 0.0 | 5.0 | 0.00 | 0.00 | 0.00 | 65 | 1007.7 |
| 20260508173109 | 76 | 294 | 4.0 | 4.0 | 0.00 | 0.00 | 0.00 | 67 | 1007.9 |
| 20260508172109 | 75 | 293 | 1.0 | 5.0 | 0.00 | 0.00 | 0.00 | 68 | 1008.1 |
| 20260508171109 | 75 | 293 | 3.0 | 6.0 | 0.00 | 0.00 | 0.00 | 66 | 1008.4 |
| 20260508170109 | 75 | 295 | 0.0 | 4.0 | 0.00 | 0.00 | 0.00 | 68 | 1008.8 |
| 20260508165109 | 74 | 294 | 2.0 | 3.0 | 0.00 | 0.00 | 0.00 | 69 | 1008.9 |
| 20260508164109 | 72 | 293 | 0.0 | 4.0 | 0.00 | 0.00 | 0.00 | 70 | 1009.1 |
| 20260508163109 | 71 | 293 | 0.0 | 5.0 | 0.00 | 0.00 | 0.00 | 76 | 1009.3 |
| 20260508162109 | 69 | 293 | 1.0 | 4.0 | 0.00 | 0.00 | 0.00 | 80 | 1009.6 |
| 20260508161109 | 68 | 294 | 0.0 | 3.0 | 0.00 | 0.00 | 0.00 | 87 | 1009.7 |
| 20260508160109 | 66 | 293 | 0.0 | 4.0 | 0.00 | 0.00 | 0.00 | 96 | 1009.7 |
| 20260508155109 | 65 | 293 | 3.0 | 3.0 | 0.00 | 0.00 | 0.00 | 98 | 1009.7 |
| 20260508154109 | 64 | 294 | 0.0 | 2.0 | 0.00 | 0.00 | 0.00 | 99 | 1010.0 |
| 20260508153109 | 64 | 295 | 0.0 | 3.0 | 0.00 | 0.00 | 0.00 | 99 | 1010.0 |
| 20260508152109 | 63 | 294 | 1.0 | 4.0 | 0.00 | 0.00 | 0.00 | 99 | 1009.9 |